sensor_id;sensor_type;location;lat;lon;timestamp;P1;durP1;ratioP1;P2;durP2;ratioP2
20441;SDS011;10380;52.102;20.614;2022-07-04T00:01:10;7.97;;;5.28;;
20441;SDS011;10380;52.102;20.614;2022-07-04T00:03:38;8.93;;;5.10;;
20441;SDS011;10380;52.102;20.614;2022-07-04T00:06:08;7.43;;;5.50;;
20441;SDS011;10380;52.102;20.614;2022-07-04T00:08:37;7.75;;;5.20;;
20441;SDS011;10380;52.102;20.614;2022-07-04T00:11:05;7.50;;;5.28;;
20441;SDS011;10380;52.102;20.614;2022-07-04T00:13:34;7.13;;;5.18;;
20441;SDS011;10380;52.102;20.614;2022-07-04T00:16:00;6.50;;;5.07;;
20441;SDS011;10380;52.102;20.614;2022-07-04T00:18:29;5.43;;;4.95;;
20441;SDS011;10380;52.102;20.614;2022-07-04T00:20:57;8.82;;;5.30;;
20441;SDS011;10380;52.102;20.614;2022-07-04T00:23:25;6.72;;;5.53;;
20441;SDS011;10380;52.102;20.614;2022-07-04T00:25:54;6.30;;;5.15;;
20441;SDS011;10380;52.102;20.614;2022-07-04T00:28:27;6.90;;;5.20;;
20441;SDS011;10380;52.102;20.614;2022-07-04T00:30:56;9.57;;;5.55;;
20441;SDS011;10380;52.102;20.614;2022-07-04T00:33:26;7.85;;;5.63;;
20441;SDS011;10380;52.102;20.614;2022-07-04T00:35:53;8.15;;;5.68;;
20441;SDS011;10380;52.102;20.614;2022-07-04T00:38:22;7.72;;;5.50;;
20441;SDS011;10380;52.102;20.614;2022-07-04T00:40:50;7.25;;;5.55;;
20441;SDS011;10380;52.102;20.614;2022-07-04T00:43:21;8.57;;;5.72;;
20441;SDS011;10380;52.102;20.614;2022-07-04T00:45:52;6.63;;;5.68;;
20441;SDS011;10380;52.102;20.614;2022-07-04T00:48:20;9.43;;;5.63;;
20441;SDS011;10380;52.102;20.614;2022-07-04T00:50:48;8.38;;;5.45;;
20441;SDS011;10380;52.102;20.614;2022-07-04T00:53:16;7.80;;;6.32;;
20441;SDS011;10380;52.102;20.614;2022-07-04T00:55:45;5.90;;;5.07;;
20441;SDS011;10380;52.102;20.614;2022-07-04T00:58:13;8.38;;;6.00;;
20441;SDS011;10380;52.102;20.614;2022-07-04T01:00:47;7.53;;;5.45;;
20441;SDS011;10380;52.102;20.614;2022-07-04T01:03:14;6.30;;;5.45;;
20441;SDS011;10380;52.102;20.614;2022-07-04T01:05:42;8.63;;;6.25;;
20441;SDS011;10380;52.102;20.614;2022-07-04T01:08:10;8.05;;;5.68;;
20441;SDS011;10380;52.102;20.614;2022-07-04T01:10:38;6.47;;;5.63;;
20441;SDS011;10380;52.102;20.614;2022-07-04T01:13:20;8.18;;;5.45;;
20441;SDS011;10380;52.102;20.614;2022-07-04T01:15:48;6.65;;;5.90;;
20441;SDS011;10380;52.102;20.614;2022-07-04T01:18:17;6.97;;;6.28;;
20441;SDS011;10380;52.102;20.614;2022-07-04T01:20:46;9.35;;;5.88;;
20441;SDS011;10380;52.102;20.614;2022-07-04T01:23:16;9.18;;;6.72;;
20441;SDS011;10380;52.102;20.614;2022-07-04T01:25:44;6.63;;;5.90;;
20441;SDS011;10380;52.102;20.614;2022-07-04T01:28:23;7.85;;;6.90;;
20441;SDS011;10380;52.102;20.614;2022-07-04T01:30:51;7.15;;;6.45;;
20441;SDS011;10380;52.102;20.614;2022-07-04T01:33:21;8.40;;;6.00;;
20441;SDS011;10380;52.102;20.614;2022-07-04T01:35:48;9.02;;;7.25;;
20441;SDS011;10380;52.102;20.614;2022-07-04T01:38:17;7.30;;;6.07;;
20441;SDS011;10380;52.102;20.614;2022-07-04T01:40:50;7.57;;;5.47;;
20441;SDS011;10380;52.102;20.614;2022-07-04T01:43:17;10.43;;;7.15;;
20441;SDS011;10380;52.102;20.614;2022-07-04T01:45:46;11.82;;;7.32;;
20441;SDS011;10380;52.102;20.614;2022-07-04T01:48:15;8.90;;;6.82;;
20441;SDS011;10380;52.102;20.614;2022-07-04T01:50:42;9.10;;;6.68;;
20441;SDS011;10380;52.102;20.614;2022-07-04T01:53:09;7.13;;;5.80;;
20441;SDS011;10380;52.102;20.614;2022-07-04T01:55:38;9.38;;;6.97;;
20441;SDS011;10380;52.102;20.614;2022-07-04T01:58:05;7.35;;;6.53;;
20441;SDS011;10380;52.102;20.614;2022-07-04T02:00:32;8.95;;;6.18;;
20441;SDS011;10380;52.102;20.614;2022-07-04T02:03:18;9.27;;;6.32;;
20441;SDS011;10380;52.102;20.614;2022-07-04T02:05:44;10.13;;;7.07;;
20441;SDS011;10380;52.102;20.614;2022-07-04T02:08:11;9.18;;;7.00;;
20441;SDS011;10380;52.102;20.614;2022-07-04T02:10:38;9.68;;;6.25;;
20441;SDS011;10380;52.102;20.614;2022-07-04T02:13:05;8.63;;;6.45;;
20441;SDS011;10380;52.102;20.614;2022-07-04T02:15:39;10.25;;;6.78;;
20441;SDS011;10380;52.102;20.614;2022-07-04T02:18:08;7.35;;;6.65;;
20441;SDS011;10380;52.102;20.614;2022-07-04T02:20:36;7.85;;;7.05;;
20441;SDS011;10380;52.102;20.614;2022-07-04T02:23:04;12.52;;;7.72;;
20441;SDS011;10380;52.102;20.614;2022-07-04T02:25:33;10.18;;;7.13;;
20441;SDS011;10380;52.102;20.614;2022-07-04T02:28:00;8.85;;;7.20;;
20441;SDS011;10380;52.102;20.614;2022-07-04T02:30:27;7.97;;;7.25;;
20441;SDS011;10380;52.102;20.614;2022-07-04T02:32:54;13.07;;;7.85;;
20441;SDS011;10380;52.102;20.614;2022-07-04T02:35:21;10.25;;;7.60;;
20441;SDS011;10380;52.102;20.614;2022-07-04T02:37:49;9.35;;;6.95;;
20441;SDS011;10380;52.102;20.614;2022-07-04T02:40:16;9.63;;;6.45;;
20441;SDS011;10380;52.102;20.614;2022-07-04T02:42:43;13.20;;;8.57;;
20441;SDS011;10380;52.102;20.614;2022-07-04T02:45:10;7.75;;;6.95;;
20441;SDS011;10380;52.102;20.614;2022-07-04T02:47:38;7.88;;;6.50;;
20441;SDS011;10380;52.102;20.614;2022-07-04T02:50:06;14.40;;;7.43;;
20441;SDS011;10380;52.102;20.614;2022-07-04T02:52:36;10.55;;;7.25;;
20441;SDS011;10380;52.102;20.614;2022-07-04T02:55:03;7.97;;;6.70;;
20441;SDS011;10380;52.102;20.614;2022-07-04T02:57:30;7.25;;;6.00;;
20441;SDS011;10380;52.102;20.614;2022-07-04T02:59:57;9.57;;;6.75;;
20441;SDS011;10380;52.102;20.614;2022-07-04T03:02:25;9.35;;;7.15;;
20441;SDS011;10380;52.102;20.614;2022-07-04T03:04:54;7.78;;;6.90;;
20441;SDS011;10380;52.102;20.614;2022-07-04T03:07:21;11.93;;;7.68;;
20441;SDS011;10380;52.102;20.614;2022-07-04T03:09:48;8.43;;;7.00;;
20441;SDS011;10380;52.102;20.614;2022-07-04T03:12:15;7.72;;;7.00;;
20441;SDS011;10380;52.102;20.614;2022-07-04T03:14:44;10.38;;;7.30;;
20441;SDS011;10380;52.102;20.614;2022-07-04T03:17:18;8.50;;;7.53;;
20441;SDS011;10380;52.102;20.614;2022-07-04T03:19:45;8.20;;;7.40;;
20441;SDS011;10380;52.102;20.614;2022-07-04T03:22:15;8.00;;;7.20;;
20441;SDS011;10380;52.102;20.614;2022-07-04T03:24:44;9.48;;;7.15;;
20441;SDS011;10380;52.102;20.614;2022-07-04T03:27:14;9.95;;;7.72;;
20441;SDS011;10380;52.102;20.614;2022-07-04T03:29:41;11.55;;;7.88;;
20441;SDS011;10380;52.102;20.614;2022-07-04T03:32:14;11.05;;;8.15;;
20441;SDS011;10380;52.102;20.614;2022-07-04T03:34:41;10.23;;;8.05;;
20441;SDS011;10380;52.102;20.614;2022-07-04T03:37:08;8.18;;;7.32;;
20441;SDS011;10380;52.102;20.614;2022-07-04T03:39:36;14.93;;;9.50;;
20441;SDS011;10380;52.102;20.614;2022-07-04T03:42:10;9.90;;;7.20;;
20441;SDS011;10380;52.102;20.614;2022-07-04T03:44:37;10.23;;;7.60;;
20441;SDS011;10380;52.102;20.614;2022-07-04T03:47:04;12.00;;;8.05;;
20441;SDS011;10380;52.102;20.614;2022-07-04T03:54:47;9.75;;;7.53;;
20441;SDS011;10380;52.102;20.614;2022-07-04T03:57:14;9.63;;;8.65;;
20441;SDS011;10380;52.102;20.614;2022-07-04T03:59:41;8.98;;;7.88;;
20441;SDS011;10380;52.102;20.614;2022-07-04T04:02:14;11.90;;;8.57;;
20441;SDS011;10380;52.102;20.614;2022-07-04T04:04:42;9.45;;;7.47;;
20441;SDS011;10380;52.102;20.614;2022-07-04T04:10:05;9.30;;;8.35;;
20441;SDS011;10380;52.102;20.614;2022-07-04T04:12:33;9.00;;;7.43;;
20441;SDS011;10380;52.102;20.614;2022-07-04T04:15:00;10.93;;;7.20;;
20441;SDS011;10380;52.102;20.614;2022-07-04T04:17:34;10.20;;;8.43;;
20441;SDS011;10380;52.102;20.614;2022-07-04T04:20:02;8.65;;;7.85;;
20441;SDS011;10380;52.102;20.614;2022-07-04T04:22:29;9.52;;;8.18;;
20441;SDS011;10380;52.102;20.614;2022-07-04T04:24:56;11.35;;;7.70;;
20441;SDS011;10380;52.102;20.614;2022-07-04T04:27:23;9.88;;;7.90;;
20441;SDS011;10380;52.102;20.614;2022-07-04T04:29:50;9.65;;;8.65;;
20441;SDS011;10380;52.102;20.614;2022-07-04T04:32:24;10.70;;;7.50;;
20441;SDS011;10380;52.102;20.614;2022-07-04T04:34:52;9.35;;;8.27;;
20441;SDS011;10380;52.102;20.614;2022-07-04T04:39:49;10.93;;;8.68;;
20441;SDS011;10380;52.102;20.614;2022-07-04T04:42:16;9.25;;;8.23;;
20441;SDS011;10380;52.102;20.614;2022-07-04T04:44:44;11.68;;;8.50;;
20441;SDS011;10380;52.102;20.614;2022-07-04T04:47:13;9.25;;;7.15;;
20441;SDS011;10380;52.102;20.614;2022-07-04T04:49:40;10.07;;;8.57;;
20441;SDS011;10380;52.102;20.614;2022-07-04T04:52:08;9.57;;;8.55;;
20441;SDS011;10380;52.102;20.614;2022-07-04T04:54:41;10.15;;;7.93;;
20441;SDS011;10380;52.102;20.614;2022-07-04T04:57:10;9.65;;;8.10;;
20441;SDS011;10380;52.102;20.614;2022-07-04T04:59:37;8.60;;;7.35;;
20441;SDS011;10380;52.102;20.614;2022-07-04T05:02:04;8.45;;;7.55;;
20441;SDS011;10380;52.102;20.614;2022-07-04T05:04:31;10.38;;;8.45;;
20441;SDS011;10380;52.102;20.614;2022-07-04T05:06:58;9.35;;;7.75;;
20441;SDS011;10380;52.102;20.614;2022-07-04T05:09:25;9.45;;;7.78;;
20441;SDS011;10380;52.102;20.614;2022-07-04T05:11:54;10.38;;;7.28;;
20441;SDS011;10380;52.102;20.614;2022-07-04T05:14:22;10.25;;;8.55;;
20441;SDS011;10380;52.102;20.614;2022-07-04T05:16:49;8.15;;;7.35;;
20441;SDS011;10380;52.102;20.614;2022-07-04T05:19:17;10.02;;;7.80;;
20441;SDS011;10380;52.102;20.614;2022-07-04T05:21:44;7.60;;;6.70;;
20441;SDS011;10380;52.102;20.614;2022-07-04T05:24:11;9.63;;;7.43;;
20441;SDS011;10380;52.102;20.614;2022-07-04T05:26:38;8.23;;;6.68;;
20441;SDS011;10380;52.102;20.614;2022-07-04T05:29:06;12.23;;;6.95;;
20441;SDS011;10380;52.102;20.614;2022-07-04T05:31:33;9.27;;;6.97;;
20441;SDS011;10380;52.102;20.614;2022-07-04T05:34:00;8.55;;;5.80;;
20441;SDS011;10380;52.102;20.614;2022-07-04T05:36:28;5.32;;;4.82;;
20441;SDS011;10380;52.102;20.614;2022-07-04T05:38:56;8.15;;;5.72;;
20441;SDS011;10380;52.102;20.614;2022-07-04T05:41:24;8.60;;;5.20;;
20441;SDS011;10380;52.102;20.614;2022-07-04T05:43:51;5.28;;;4.53;;
20441;SDS011;10380;52.102;20.614;2022-07-04T05:46:23;5.70;;;5.10;;
20441;SDS011;10380;52.102;20.614;2022-07-04T05:48:50;6.57;;;5.05;;
20441;SDS011;10380;52.102;20.614;2022-07-04T05:51:17;6.75;;;4.45;;
20441;SDS011;10380;52.102;20.614;2022-07-04T05:53:44;6.13;;;4.65;;
20441;SDS011;10380;52.102;20.614;2022-07-04T05:56:11;6.38;;;4.70;;
20441;SDS011;10380;52.102;20.614;2022-07-04T05:58:38;10.63;;;5.07;;
20441;SDS011;10380;52.102;20.614;2022-07-04T06:01:05;4.80;;;4.00;;
20441;SDS011;10380;52.102;20.614;2022-07-04T06:03:32;5.97;;;4.50;;
20441;SDS011;10380;52.102;20.614;2022-07-04T06:06:03;5.32;;;4.38;;
20441;SDS011;10380;52.102;20.614;2022-07-04T06:08:30;5.88;;;4.40;;
20441;SDS011;10380;52.102;20.614;2022-07-04T06:10:57;5.55;;;4.13;;
20441;SDS011;10380;52.102;20.614;2022-07-04T06:13:24;5.85;;;3.92;;
20441;SDS011;10380;52.102;20.614;2022-07-04T06:15:51;5.25;;;3.55;;
20441;SDS011;10380;52.102;20.614;2022-07-04T06:18:18;5.13;;;4.00;;
20441;SDS011;10380;52.102;20.614;2022-07-04T06:20:45;4.30;;;3.85;;
20441;SDS011;10380;52.102;20.614;2022-07-04T06:23:12;4.22;;;3.58;;
20441;SDS011;10380;52.102;20.614;2022-07-04T06:25:39;4.95;;;3.50;;
20441;SDS011;10380;52.102;20.614;2022-07-04T06:28:05;5.97;;;4.43;;
20441;SDS011;10380;52.102;20.614;2022-07-04T06:30:32;4.82;;;3.40;;
20441;SDS011;10380;52.102;20.614;2022-07-04T06:32:59;3.50;;;3.17;;
20441;SDS011;10380;52.102;20.614;2022-07-04T06:35:27;6.78;;;3.25;;
20441;SDS011;10380;52.102;20.614;2022-07-04T06:38:16;4.07;;;2.72;;
20441;SDS011;10380;52.102;20.614;2022-07-04T06:40:44;5.50;;;2.67;;
20441;SDS011;10380;52.102;20.614;2022-07-04T06:43:12;2.63;;;2.42;;
20441;SDS011;10380;52.102;20.614;2022-07-04T06:45:39;6.32;;;2.33;;
20441;SDS011;10380;52.102;20.614;2022-07-04T06:48:06;6.97;;;2.78;;
20441;SDS011;10380;52.102;20.614;2022-07-04T06:50:33;6.32;;;3.25;;
20441;SDS011;10380;52.102;20.614;2022-07-04T06:53:06;5.53;;;3.13;;
20441;SDS011;10380;52.102;20.614;2022-07-04T06:55:35;6.57;;;3.25;;
20441;SDS011;10380;52.102;20.614;2022-07-04T06:58:06;3.53;;;2.58;;
20441;SDS011;10380;52.102;20.614;2022-07-04T07:00:35;5.10;;;2.35;;
20441;SDS011;10380;52.102;20.614;2022-07-04T07:03:03;5.40;;;3.30;;
20441;SDS011;10380;52.102;20.614;2022-07-04T07:05:31;6.80;;;3.10;;
20441;SDS011;10380;52.102;20.614;2022-07-04T07:08:18;4.22;;;2.90;;
20441;SDS011;10380;52.102;20.614;2022-07-04T07:10:45;3.60;;;2.40;;
20441;SDS011;10380;52.102;20.614;2022-07-04T07:13:12;4.65;;;2.33;;
20441;SDS011;10380;52.102;20.614;2022-07-04T07:15:40;3.55;;;2.13;;
20441;SDS011;10380;52.102;20.614;2022-07-04T07:18:07;5.00;;;2.65;;
20441;SDS011;10380;52.102;20.614;2022-07-04T07:20:33;4.35;;;2.10;;
20441;SDS011;10380;52.102;20.614;2022-07-04T07:23:04;4.85;;;2.45;;
20441;SDS011;10380;52.102;20.614;2022-07-04T07:25:31;3.60;;;1.80;;
20441;SDS011;10380;52.102;20.614;2022-07-04T07:27:58;2.08;;;1.60;;
20441;SDS011;10380;52.102;20.614;2022-07-04T07:30:25;4.60;;;1.83;;
20441;SDS011;10380;52.102;20.614;2022-07-04T07:32:52;3.50;;;1.60;;
20441;SDS011;10380;52.102;20.614;2022-07-04T07:35:19;2.80;;;1.83;;
20441;SDS011;10380;52.102;20.614;2022-07-04T07:37:48;2.10;;;1.90;;
20441;SDS011;10380;52.102;20.614;2022-07-04T07:40:15;2.38;;;1.63;;
20441;SDS011;10380;52.102;20.614;2022-07-04T07:42:42;3.45;;;2.00;;
20441;SDS011;10380;52.102;20.614;2022-07-04T07:45:09;5.20;;;2.30;;
20441;SDS011;10380;52.102;20.614;2022-07-04T07:47:35;7.45;;;2.15;;
20441;SDS011;10380;52.102;20.614;2022-07-04T07:50:02;2.83;;;2.08;;
20441;SDS011;10380;52.102;20.614;2022-07-04T07:52:30;4.05;;;2.28;;
20441;SDS011;10380;52.102;20.614;2022-07-04T07:54:58;3.13;;;2.40;;
20441;SDS011;10380;52.102;20.614;2022-07-04T07:57:27;2.90;;;2.03;;
20441;SDS011;10380;52.102;20.614;2022-07-04T07:59:54;2.97;;;1.70;;
20441;SDS011;10380;52.102;20.614;2022-07-04T08:02:21;3.28;;;2.30;;
20441;SDS011;10380;52.102;20.614;2022-07-04T08:05:09;2.60;;;1.67;;
20441;SDS011;10380;52.102;20.614;2022-07-04T08:07:37;3.83;;;2.03;;
20441;SDS011;10380;52.102;20.614;2022-07-04T08:10:04;4.53;;;2.00;;
20441;SDS011;10380;52.102;20.614;2022-07-04T08:12:33;4.20;;;1.83;;
20441;SDS011;10380;52.102;20.614;2022-07-04T08:15:00;2.63;;;1.83;;
20441;SDS011;10380;52.102;20.614;2022-07-04T08:17:32;3.53;;;1.83;;
20441;SDS011;10380;52.102;20.614;2022-07-04T08:20:00;5.85;;;2.63;;
20441;SDS011;10380;52.102;20.614;2022-07-04T08:22:29;1.73;;;1.63;;
20441;SDS011;10380;52.102;20.614;2022-07-04T08:24:56;3.13;;;1.70;;
20441;SDS011;10380;52.102;20.614;2022-07-04T08:27:26;3.47;;;1.70;;
20441;SDS011;10380;52.102;20.614;2022-07-04T08:30:02;2.42;;;2.15;;
20441;SDS011;10380;52.102;20.614;2022-07-04T08:32:29;5.18;;;1.83;;
20441;SDS011;10380;52.102;20.614;2022-07-04T08:34:56;1.70;;;1.60;;
20441;SDS011;10380;52.102;20.614;2022-07-04T08:37:25;3.63;;;2.30;;
20441;SDS011;10380;52.102;20.614;2022-07-04T08:39:52;5.68;;;1.80;;
20441;SDS011;10380;52.102;20.614;2022-07-04T08:42:20;3.83;;;1.70;;
20441;SDS011;10380;52.102;20.614;2022-07-04T08:44:49;2.85;;;1.50;;
20441;SDS011;10380;52.102;20.614;2022-07-04T08:47:21;4.93;;;1.67;;
20441;SDS011;10380;52.102;20.614;2022-07-04T08:52:35;3.20;;;1.40;;
20441;SDS011;10380;52.102;20.614;2022-07-04T08:55:04;2.20;;;1.60;;
20441;SDS011;10380;52.102;20.614;2022-07-04T08:57:52;4.13;;;1.98;;
20441;SDS011;10380;52.102;20.614;2022-07-04T09:00:39;3.15;;;1.60;;
20441;SDS011;10380;52.102;20.614;2022-07-04T09:03:07;2.75;;;1.52;;
20441;SDS011;10380;52.102;20.614;2022-07-04T09:05:38;3.05;;;1.55;;
20441;SDS011;10380;52.102;20.614;2022-07-04T09:08:06;3.65;;;1.67;;
20441;SDS011;10380;52.102;20.614;2022-07-04T09:10:33;2.38;;;1.65;;
20441;SDS011;10380;52.102;20.614;2022-07-04T09:13:03;4.05;;;2.00;;
20441;SDS011;10380;52.102;20.614;2022-07-04T09:15:40;4.20;;;1.83;;
20441;SDS011;10380;52.102;20.614;2022-07-04T09:21:00;2.38;;;1.75;;
20441;SDS011;10380;52.102;20.614;2022-07-04T09:23:32;2.90;;;1.60;;
20441;SDS011;10380;52.102;20.614;2022-07-04T09:26:20;3.08;;;1.38;;
20441;SDS011;10380;52.102;20.614;2022-07-04T09:31:29;2.28;;;1.73;;
20441;SDS011;10380;52.102;20.614;2022-07-04T09:33:58;4.38;;;1.80;;
20441;SDS011;10380;52.102;20.614;2022-07-04T09:36:43;2.97;;;1.58;;
20441;SDS011;10380;52.102;20.614;2022-07-04T09:39:15;2.85;;;1.75;;
20441;SDS011;10380;52.102;20.614;2022-07-04T09:44:23;1.67;;;1.52;;
20441;SDS011;10380;52.102;20.614;2022-07-04T09:46:52;3.13;;;1.73;;
20441;SDS011;10380;52.102;20.614;2022-07-04T09:49:19;3.50;;;2.50;;
20441;SDS011;10380;52.102;20.614;2022-07-04T09:51:52;1.48;;;1.38;;
20441;SDS011;10380;52.102;20.614;2022-07-04T09:54:24;2.22;;;1.55;;
20441;SDS011;10380;52.102;20.614;2022-07-04T09:56:58;1.80;;;1.67;;
20441;SDS011;10380;52.102;20.614;2022-07-04T09:59:27;3.22;;;1.55;;
20441;SDS011;10380;52.102;20.614;2022-07-04T10:04:44;7.88;;;2.22;;
20441;SDS011;10380;52.102;20.614;2022-07-04T10:07:12;5.15;;;1.80;;
20441;SDS011;10380;52.102;20.614;2022-07-04T10:09:57;2.17;;;1.88;;
20441;SDS011;10380;52.102;20.614;2022-07-04T10:12:25;2.80;;;1.65;;
20441;SDS011;10380;52.102;20.614;2022-07-04T10:14:55;2.75;;;2.28;;
20441;SDS011;10380;52.102;20.614;2022-07-04T10:17:25;3.08;;;1.60;;
20441;SDS011;10380;52.102;20.614;2022-07-04T10:19:52;3.85;;;2.08;;
20441;SDS011;10380;52.102;20.614;2022-07-04T10:22:20;4.13;;;1.85;;
20441;SDS011;10380;52.102;20.614;2022-07-04T10:24:49;4.28;;;1.77;;
20441;SDS011;10380;52.102;20.614;2022-07-04T10:27:16;3.47;;;1.90;;
20441;SDS011;10380;52.102;20.614;2022-07-04T10:29:44;4.47;;;2.25;;
20441;SDS011;10380;52.102;20.614;2022-07-04T10:32:11;3.65;;;2.22;;
20441;SDS011;10380;52.102;20.614;2022-07-04T10:34:39;2.42;;;2.05;;
20441;SDS011;10380;52.102;20.614;2022-07-04T10:37:07;3.50;;;2.40;;
20441;SDS011;10380;52.102;20.614;2022-07-04T10:39:36;4.30;;;2.42;;
20441;SDS011;10380;52.102;20.614;2022-07-04T10:42:05;3.78;;;2.40;;
20441;SDS011;10380;52.102;20.614;2022-07-04T10:44:32;5.93;;;2.00;;
20441;SDS011;10380;52.102;20.614;2022-07-04T10:47:04;5.45;;;2.80;;
20441;SDS011;10380;52.102;20.614;2022-07-04T10:49:34;3.20;;;2.30;;
20441;SDS011;10380;52.102;20.614;2022-07-04T10:54:39;3.97;;;2.50;;
20441;SDS011;10380;52.102;20.614;2022-07-04T11:00:25;3.25;;;2.63;;
20441;SDS011;10380;52.102;20.614;2022-07-04T11:02:35;2.78;;;2.50;;
20441;SDS011;10380;52.102;20.614;2022-07-04T11:05:07;4.53;;;2.88;;
20441;SDS011;10380;52.102;20.614;2022-07-04T11:18:08;2.72;;;2.35;;
20441;SDS011;10380;52.102;20.614;2022-07-04T11:20:36;2.88;;;2.40;;
20441;SDS011;10380;52.102;20.614;2022-07-04T11:23:10;5.90;;;3.17;;
20441;SDS011;10380;52.102;20.614;2022-07-04T11:25:41;3.25;;;2.95;;
20441;SDS011;10380;52.102;20.614;2022-07-04T11:28:28;3.83;;;2.55;;
20441;SDS011;10380;52.102;20.614;2022-07-04T11:31:09;2.83;;;2.63;;
20441;SDS011;10380;52.102;20.614;2022-07-04T11:33:37;3.40;;;3.10;;
20441;SDS011;10380;52.102;20.614;2022-07-04T11:36:08;5.38;;;3.55;;
20441;SDS011;10380;52.102;20.614;2022-07-04T11:38:52;3.22;;;2.42;;
20441;SDS011;10380;52.102;20.614;2022-07-04T11:41:29;2.67;;;2.47;;
20441;SDS011;10380;52.102;20.614;2022-07-04T11:44:17;7.25;;;3.15;;
20441;SDS011;10380;52.102;20.614;2022-07-04T11:47:09;5.80;;;2.50;;
20441;SDS011;10380;52.102;20.614;2022-07-04T11:49:50;3.08;;;2.78;;
20441;SDS011;10380;52.102;20.614;2022-07-04T11:52:19;4.05;;;2.80;;
20441;SDS011;10380;52.102;20.614;2022-07-04T11:55:09;2.55;;;2.22;;
20441;SDS011;10380;52.102;20.614;2022-07-04T11:57:39;5.03;;;3.05;;
20441;SDS011;10380;52.102;20.614;2022-07-04T12:02:46;4.53;;;2.80;;
20441;SDS011;10380;52.102;20.614;2022-07-04T12:05:15;2.85;;;2.55;;
20441;SDS011;10380;52.102;20.614;2022-07-04T12:07:44;2.95;;;2.65;;
20441;SDS011;10380;52.102;20.614;2022-07-04T12:10:32;4.60;;;2.80;;
20441;SDS011;10380;52.102;20.614;2022-07-04T12:13:05;2.90;;;2.63;;
20441;SDS011;10380;52.102;20.614;2022-07-04T12:15:41;3.05;;;2.50;;
20441;SDS011;10380;52.102;20.614;2022-07-04T12:20:51;3.28;;;2.55;;
20441;SDS011;10380;52.102;20.614;2022-07-04T12:23:20;4.32;;;2.60;;
20441;SDS011;10380;52.102;20.614;2022-07-04T12:25:49;3.75;;;3.15;;
20441;SDS011;10380;52.102;20.614;2022-07-04T12:28:17;5.60;;;3.20;;
20441;SDS011;10380;52.102;20.614;2022-07-04T12:30:49;5.80;;;2.90;;
20441;SDS011;10380;52.102;20.614;2022-07-04T12:33:21;3.40;;;3.05;;
20441;SDS011;10380;52.102;20.614;2022-07-04T12:35:50;5.22;;;2.50;;
20441;SDS011;10380;52.102;20.614;2022-07-04T12:46:09;6.78;;;3.22;;
20441;SDS011;10380;52.102;20.614;2022-07-04T12:48:41;5.57;;;3.03;;
20441;SDS011;10380;52.102;20.614;2022-07-04T12:51:12;3.47;;;3.17;;
20441;SDS011;10380;52.102;20.614;2022-07-04T12:53:47;3.95;;;2.90;;
20441;SDS011;10380;52.102;20.614;2022-07-04T12:58:56;4.03;;;3.25;;
20441;SDS011;10380;52.102;20.614;2022-07-04T13:01:24;3.95;;;2.80;;
20441;SDS011;10380;52.102;20.614;2022-07-04T13:03:52;4.88;;;3.15;;
20441;SDS011;10380;52.102;20.614;2022-07-04T13:06:20;5.10;;;2.80;;
20441;SDS011;10380;52.102;20.614;2022-07-04T13:08:47;3.80;;;2.67;;
20441;SDS011;10380;52.102;20.614;2022-07-04T13:11:15;3.30;;;3.00;;
20441;SDS011;10380;52.102;20.614;2022-07-04T13:14:01;4.60;;;3.03;;
20441;SDS011;10380;52.102;20.614;2022-07-04T13:16:30;18.05;;;3.83;;
20441;SDS011;10380;52.102;20.614;2022-07-04T13:19:03;2.92;;;2.53;;
20441;SDS011;10380;52.102;20.614;2022-07-04T13:21:30;3.50;;;2.35;;
20441;SDS011;10380;52.102;20.614;2022-07-04T13:23:57;3.33;;;2.63;;
20441;SDS011;10380;52.102;20.614;2022-07-04T13:26:24;4.00;;;2.40;;
20441;SDS011;10380;52.102;20.614;2022-07-04T13:28:51;4.18;;;1.90;;
20441;SDS011;10380;52.102;20.614;2022-07-04T13:31:18;3.53;;;2.33;;
20441;SDS011;10380;52.102;20.614;2022-07-04T13:33:45;4.35;;;2.42;;
20441;SDS011;10380;52.102;20.614;2022-07-04T13:36:12;4.20;;;2.15;;
20441;SDS011;10380;52.102;20.614;2022-07-04T13:38:41;3.25;;;2.08;;
20441;SDS011;10380;52.102;20.614;2022-07-04T13:41:28;2.45;;;2.20;;
20441;SDS011;10380;52.102;20.614;2022-07-04T13:43:59;4.30;;;2.42;;
20441;SDS011;10380;52.102;20.614;2022-07-04T13:46:27;3.60;;;2.13;;
20441;SDS011;10380;52.102;20.614;2022-07-04T13:48:54;2.47;;;2.28;;
20441;SDS011;10380;52.102;20.614;2022-07-04T13:51:21;3.63;;;2.80;;
20441;SDS011;10380;52.102;20.614;2022-07-04T13:53:48;2.72;;;2.25;;
20441;SDS011;10380;52.102;20.614;2022-07-04T13:56:16;2.50;;;2.30;;
20441;SDS011;10380;52.102;20.614;2022-07-04T13:58:44;5.30;;;2.33;;
20441;SDS011;10380;52.102;20.614;2022-07-04T14:01:13;2.30;;;2.10;;
20441;SDS011;10380;52.102;20.614;2022-07-04T14:03:42;2.38;;;2.17;;
20441;SDS011;10380;52.102;20.614;2022-07-04T14:06:09;3.67;;;2.33;;
20441;SDS011;10380;52.102;20.614;2022-07-04T14:08:36;3.38;;;2.50;;
20441;SDS011;10380;52.102;20.614;2022-07-04T14:11:03;4.78;;;2.90;;
20441;SDS011;10380;52.102;20.614;2022-07-04T14:13:31;3.42;;;2.83;;
20441;SDS011;10380;52.102;20.614;2022-07-04T14:15:58;5.88;;;2.58;;
20441;SDS011;10380;52.102;20.614;2022-07-04T14:18:26;3.40;;;2.50;;
20441;SDS011;10380;52.102;20.614;2022-07-04T14:20:53;3.28;;;2.40;;
20441;SDS011;10380;52.102;20.614;2022-07-04T14:23:20;2.45;;;2.25;;
20441;SDS011;10380;52.102;20.614;2022-07-04T14:26:06;2.63;;;2.42;;
20441;SDS011;10380;52.102;20.614;2022-07-04T14:28:43;2.80;;;2.60;;
20441;SDS011;10380;52.102;20.614;2022-07-04T14:31:12;5.05;;;3.20;;
20441;SDS011;10380;52.102;20.614;2022-07-04T14:33:39;3.25;;;2.95;;
20441;SDS011;10380;52.102;20.614;2022-07-04T14:36:06;3.40;;;3.08;;
20441;SDS011;10380;52.102;20.614;2022-07-04T14:38:34;6.18;;;3.92;;
20441;SDS011;10380;52.102;20.614;2022-07-04T14:41:02;8.60;;;3.63;;
20441;SDS011;10380;52.102;20.614;2022-07-04T14:43:42;5.22;;;3.70;;
20441;SDS011;10380;52.102;20.614;2022-07-04T14:46:09;5.65;;;3.40;;
20441;SDS011;10380;52.102;20.614;2022-07-04T14:48:37;5.80;;;5.15;;
20441;SDS011;10380;52.102;20.614;2022-07-04T14:51:04;4.43;;;3.65;;
20441;SDS011;10380;52.102;20.614;2022-07-04T14:53:32;8.95;;;3.65;;
20441;SDS011;10380;52.102;20.614;2022-07-04T14:55:59;3.63;;;3.33;;
20441;SDS011;10380;52.102;20.614;2022-07-04T14:58:26;8.48;;;3.72;;
20441;SDS011;10380;52.102;20.614;2022-07-04T15:00:53;4.88;;;3.60;;
20441;SDS011;10380;52.102;20.614;2022-07-04T15:03:20;6.10;;;3.58;;
20441;SDS011;10380;52.102;20.614;2022-07-04T15:05:49;4.72;;;4.28;;
20441;SDS011;10380;52.102;20.614;2022-07-04T15:08:16;4.35;;;3.95;;
20441;SDS011;10380;52.102;20.614;2022-07-04T15:10:43;5.60;;;3.20;;
20441;SDS011;10380;52.102;20.614;2022-07-04T15:13:26;4.95;;;3.05;;
20441;SDS011;10380;52.102;20.614;2022-07-04T15:15:55;4.43;;;2.97;;
20441;SDS011;10380;52.102;20.614;2022-07-04T15:18:43;5.93;;;3.13;;
20441;SDS011;10380;52.102;20.614;2022-07-04T15:21:10;3.95;;;3.22;;
20441;SDS011;10380;52.102;20.614;2022-07-04T15:23:56;3.92;;;3.63;;
20441;SDS011;10380;52.102;20.614;2022-07-04T15:26:40;4.47;;;3.78;;
20441;SDS011;10380;52.102;20.614;2022-07-04T15:29:09;3.53;;;3.15;;
20441;SDS011;10380;52.102;20.614;2022-07-04T15:31:39;4.82;;;3.53;;
20441;SDS011;10380;52.102;20.614;2022-07-04T15:34:07;3.83;;;3.03;;
20441;SDS011;10380;52.102;20.614;2022-07-04T15:36:34;5.22;;;3.85;;
20441;SDS011;10380;52.102;20.614;2022-07-04T15:39:08;7.00;;;3.65;;
20441;SDS011;10380;52.102;20.614;2022-07-04T15:41:37;4.80;;;3.90;;
20441;SDS011;10380;52.102;20.614;2022-07-04T15:44:05;3.30;;;2.97;;